createdAt,value
2023-02-28T00:01:28.796Z,5.13
2023-02-28T00:03:58.566Z,8.50
2023-02-28T00:06:26.908Z,6.10
2023-02-28T00:08:55.041Z,5.03
2023-02-28T00:11:23.214Z,4.40
2023-02-28T00:13:51.634Z,4.50
2023-02-28T00:16:21.829Z,5.60
2023-02-28T00:18:50.654Z,7.63
2023-02-28T00:21:22.059Z,8.87
2023-02-28T00:23:50.314Z,19.07
2023-02-28T00:26:21.290Z,7.73
2023-02-28T00:28:51.049Z,4.90
2023-02-28T00:31:19.429Z,4.43
2023-02-28T00:33:47.541Z,4.53
2023-02-28T00:36:16.534Z,4.10
2023-02-28T00:38:46.020Z,3.80
2023-02-28T00:41:14.254Z,3.90
2023-02-28T00:43:42.642Z,4.37
2023-02-28T00:46:12.988Z,4.00
2023-02-28T00:48:41.170Z,4.43
2023-02-28T00:51:10.554Z,4.23
2023-02-28T00:53:38.870Z,3.97
2023-02-28T00:56:09.103Z,4.13
2023-02-28T00:58:37.360Z,4.27
2023-02-28T01:01:06.115Z,4.20
2023-02-28T01:03:34.641Z,3.83
2023-02-28T01:06:02.897Z,3.90
2023-02-28T01:08:31.080Z,3.80
2023-02-28T01:10:59.401Z,3.90
2023-02-28T01:13:28.960Z,3.60
2023-02-28T01:15:58.471Z,4.00
2023-02-28T01:18:26.767Z,3.63
2023-02-28T01:20:55.251Z,3.70
2023-02-28T01:23:24.882Z,3.57
2023-02-28T01:25:53.236Z,3.53
2023-02-28T01:28:21.381Z,3.73
2023-02-28T01:30:53.726Z,3.60
2023-02-28T01:33:22.094Z,3.70
2023-02-28T01:35:50.413Z,3.43
2023-02-28T01:38:23.110Z,3.53
2023-02-28T01:40:52.353Z,3.30
2023-02-28T01:43:24.616Z,3.67
2023-02-28T01:45:54.945Z,3.50
2023-02-28T01:48:27.135Z,4.03
2023-02-28T01:50:57.235Z,3.63
2023-02-28T01:53:32.466Z,4.23
2023-02-28T01:56:00.893Z,4.00
2023-02-28T01:58:29.016Z,3.87
2023-02-28T02:00:59.957Z,3.50
2023-02-28T02:03:28.442Z,3.60
2023-02-28T02:05:56.609Z,3.80
2023-02-28T02:08:27.546Z,3.97
2023-02-28T02:10:59.262Z,3.60
2023-02-28T02:13:56.397Z,3.53
2023-02-28T02:16:44.326Z,3.50
2023-02-28T02:19:32.298Z,3.87
2023-02-28T02:22:33.234Z,3.63
2023-02-28T02:25:21.807Z,3.80
2023-02-28T02:28:07.290Z,3.70
2023-02-28T02:30:58.540Z,3.47
2023-02-28T02:33:41.581Z,3.37
2023-02-28T02:36:17.459Z,3.73
2023-02-28T02:38:51.850Z,3.60
2023-02-28T02:41:26.685Z,4.17
2023-02-28T02:43:59.503Z,4.20
2023-02-28T02:46:34.245Z,4.17
2023-02-28T02:49:05.757Z,5.10
2023-02-28T02:51:36.384Z,4.00
2023-02-28T02:54:10.313Z,4.37
2023-02-28T02:56:41.182Z,4.07
2023-02-28T02:59:13.613Z,3.93
2023-02-28T03:01:43.787Z,4.83
2023-02-28T03:04:16.145Z,6.53
2023-02-28T03:06:45.797Z,5.33
2023-02-28T03:09:14.266Z,5.43
2023-02-28T03:11:43.700Z,5.47
2023-02-28T03:14:25.384Z,5.27
2023-02-28T03:17:07.465Z,4.30
2023-02-28T03:19:53.097Z,4.50
2023-02-28T03:22:52.004Z,5.17
2023-02-28T03:25:29.264Z,5.07
2023-02-28T03:28:05.399Z,4.13
2023-02-28T03:30:42.753Z,4.10
2023-02-28T03:33:16.250Z,4.20
2023-02-28T03:35:50.276Z,4.27
2023-02-28T03:38:23.009Z,4.20
2023-02-28T03:40:53.626Z,4.73
2023-02-28T03:43:26.969Z,4.13
2023-02-28T03:45:57.995Z,4.60
2023-02-28T03:48:32.626Z,4.00
2023-02-28T03:51:02.631Z,4.37
2023-02-28T03:53:36.734Z,4.63
2023-02-28T03:56:13.459Z,4.53
2023-02-28T03:58:49.689Z,4.50
2023-02-28T04:01:22.561Z,4.37
2023-02-28T04:03:52.770Z,4.23
2023-02-28T04:06:23.848Z,4.50
2023-02-28T04:08:53.991Z,4.20
2023-02-28T04:11:25.951Z,4.07
2023-02-28T04:13:54.173Z,4.40
2023-02-28T04:16:34.505Z,4.47
2023-02-28T04:19:04.576Z,4.30
2023-02-28T04:21:34.044Z,4.40
2023-02-28T04:24:03.926Z,4.83
2023-02-28T04:26:32.777Z,4.30
2023-02-28T04:29:02.233Z,4.73
2023-02-28T04:31:30.786Z,4.37
2023-02-28T04:33:59.663Z,4.63
2023-02-28T04:36:28.526Z,4.53
2023-02-28T04:38:58.987Z,5.23
2023-02-28T04:41:32.170Z,4.70
2023-02-28T04:44:00.717Z,4.60
2023-02-28T04:46:29.106Z,5.33
2023-02-28T04:48:57.349Z,4.83
2023-02-28T04:51:25.724Z,5.10
2023-02-28T04:53:54.981Z,5.30
2023-02-28T04:56:23.621Z,5.20
2023-02-28T04:58:55.605Z,5.57
2023-02-28T05:01:27.499Z,6.10
2023-02-28T05:04:00.160Z,5.87
2023-02-28T05:06:30.943Z,5.13
2023-02-28T05:08:59.948Z,5.37
2023-02-28T05:11:35.836Z,5.40
2023-02-28T05:14:06.600Z,5.50
2023-02-28T05:16:35.088Z,7.37
2023-02-28T05:19:03.559Z,8.37
2023-02-28T05:21:33.928Z,6.90
2023-02-28T05:24:03.994Z,6.77
2023-02-28T05:26:33.199Z,13.17
2023-02-28T05:29:01.335Z,7.60
2023-02-28T05:31:33.076Z,6.43
2023-02-28T05:34:01.507Z,6.17
2023-02-28T05:36:29.980Z,6.50
2023-02-28T05:38:58.290Z,5.90
2023-02-28T05:41:27.308Z,6.60
2023-02-28T05:43:55.983Z,7.63
2023-02-28T05:46:24.269Z,6.33
2023-02-28T05:48:56.916Z,5.87
2023-02-28T05:51:25.249Z,5.43
2023-02-28T05:53:53.656Z,5.40
2023-02-28T05:56:21.923Z,5.30
2023-02-28T05:58:50.180Z,5.57
2023-02-28T06:01:28.980Z,5.77
2023-02-28T06:03:58.798Z,5.77
2023-02-28T06:06:27.081Z,6.63
2023-02-28T06:08:55.310Z,6.80
2023-02-28T06:11:28.223Z,6.73
2023-02-28T06:13:57.832Z,6.97
2023-02-28T06:16:26.361Z,6.47
2023-02-28T06:18:56.754Z,6.80
2023-02-28T06:21:26.652Z,6.97
2023-02-28T06:23:55.419Z,6.20
2023-02-28T06:26:23.573Z,5.37
2023-02-28T06:28:52.131Z,5.90
2023-02-28T06:31:21.026Z,4.87
2023-02-28T06:33:51.113Z,5.53
2023-02-28T06:36:19.836Z,5.33
2023-02-28T06:38:52.523Z,5.57
2023-02-28T06:41:20.660Z,5.60
2023-02-28T06:43:48.955Z,5.40
2023-02-28T06:46:17.308Z,5.50
2023-02-28T06:48:47.973Z,5.97
2023-02-28T06:51:18.523Z,5.90
2023-02-28T06:53:46.866Z,6.27
2023-02-28T06:56:18.231Z,4.90
2023-02-28T06:58:49.331Z,6.30
2023-02-28T07:01:18.125Z,5.57
2023-02-28T07:03:46.411Z,5.20
2023-02-28T07:06:14.810Z,4.80
2023-02-28T07:08:42.980Z,5.10
2023-02-28T07:11:11.241Z,5.43
2023-02-28T07:13:40.808Z,6.10
2023-02-28T07:16:11.912Z,6.10
2023-02-28T07:18:40.801Z,6.32
2023-02-28T07:21:10.796Z,6.35
2023-02-28T07:23:40.061Z,6.55
2023-02-28T07:26:12.175Z,6.40
2023-02-28T07:28:41.970Z,6.60
2023-02-28T07:31:11.004Z,7.10
2023-02-28T07:33:39.551Z,6.55
2023-02-28T07:36:09.948Z,7.25
2023-02-28T07:38:38.882Z,7.85
2023-02-28T07:41:07.100Z,7.65
2023-02-28T07:43:35.348Z,6.60
2023-02-28T07:46:06.878Z,7.25
2023-02-28T07:48:35.430Z,6.95
2023-02-28T07:51:04.667Z,7.18
2023-02-28T07:53:33.126Z,7.07
2023-02-28T07:56:02.801Z,6.72
2023-02-28T07:58:31.722Z,6.20
2023-02-28T08:01:06.715Z,6.93
2023-02-28T08:03:36.621Z,6.55
2023-02-28T08:06:05.596Z,6.15
2023-02-28T08:08:33.947Z,9.10
2023-02-28T08:11:02.869Z,16.23
2023-02-28T08:13:32.036Z,43.05
2023-02-28T08:16:00.290Z,7.10
2023-02-28T08:18:28.485Z,6.57
2023-02-28T08:20:58.524Z,10.82
2023-02-28T08:23:26.770Z,12.15
2023-02-28T08:25:58.635Z,11.85
2023-02-28T08:28:27.694Z,5.15
2023-02-28T08:30:56.056Z,5.18
2023-02-28T08:33:24.993Z,4.20
2023-02-28T08:35:56.311Z,4.20
2023-02-28T08:38:26.418Z,18.33
2023-02-28T08:41:01.233Z,4.90
2023-02-28T08:43:29.901Z,5.03
2023-02-28T08:45:58.761Z,3.45
2023-02-28T08:48:27.533Z,3.10
2023-02-28T08:51:07.117Z,3.17
2023-02-28T08:53:37.989Z,3.63
2023-02-28T08:56:08.578Z,3.50
2023-02-28T08:58:36.948Z,3.88
2023-02-28T09:01:10.644Z,3.58
2023-02-28T09:03:39.041Z,3.10
2023-02-28T09:06:07.386Z,3.17
2023-02-28T09:08:37.086Z,5.45
2023-02-28T09:11:05.949Z,2.72
2023-02-28T09:13:34.703Z,2.80
2023-02-28T09:16:04.923Z,21.27
2023-02-28T09:18:33.532Z,3.90
2023-02-28T09:21:01.727Z,5.20
2023-02-28T09:23:29.876Z,3.13
2023-02-28T09:25:59.510Z,2.40
2023-02-28T09:28:27.850Z,2.38
2023-02-28T09:30:58.817Z,2.90
2023-02-28T09:33:27.877Z,2.45
2023-02-28T09:36:01.648Z,2.45
2023-02-28T09:38:30.416Z,2.33
2023-02-28T09:41:02.557Z,2.22
2023-02-28T09:43:36.705Z,2.20
2023-02-28T09:46:13.116Z,2.40
2023-02-28T09:48:44.891Z,2.10
2023-02-28T09:51:26.909Z,2.00
2023-02-28T09:54:01.453Z,3.92
2023-02-28T09:56:36.786Z,22.35
2023-02-28T09:59:12.258Z,2.10
2023-02-28T10:01:46.457Z,2.08
2023-02-28T10:04:22.707Z,1.75
2023-02-28T10:06:53.011Z,6.75
2023-02-28T10:09:25.163Z,2.15
2023-02-28T10:11:59.034Z,2.08
2023-02-28T10:14:29.992Z,2.30
2023-02-28T10:17:01.356Z,2.55
2023-02-28T10:19:35.794Z,2.00
2023-02-28T10:22:11.720Z,2.10
2023-02-28T10:24:43.231Z,2.30
2023-02-28T10:27:18.227Z,2.60
2023-02-28T10:29:48.302Z,2.75
2023-02-28T10:32:19.510Z,2.30
2023-02-28T10:34:54.503Z,2.28
2023-02-28T10:37:23.768Z,2.90
2023-02-28T10:39:51.916Z,3.10
2023-02-28T10:42:28.042Z,2.60
2023-02-28T10:45:13.911Z,2.20
2023-02-28T10:47:54.924Z,2.22
2023-02-28T10:50:32.995Z,2.05
2023-02-28T10:53:17.916Z,2.10
2023-02-28T10:55:46.207Z,1.88
2023-02-28T10:58:24.948Z,2.30
2023-02-28T11:00:54.265Z,2.13
2023-02-28T11:03:34.127Z,2.10
2023-02-28T11:06:09.062Z,1.83
2023-02-28T11:08:47.755Z,1.90
2023-02-28T11:11:17.853Z,1.98
2023-02-28T11:13:50.899Z,1.92
2023-02-28T11:16:19.418Z,1.77
2023-02-28T11:18:51.893Z,1.80
2023-02-28T11:21:28.967Z,2.10
2023-02-28T11:24:06.014Z,1.80
2023-02-28T11:26:44.205Z,1.58
2023-02-28T11:29:22.533Z,1.77
2023-02-28T11:32:20.642Z,1.67
2023-02-28T11:35:03.609Z,1.83
2023-02-28T11:37:33.696Z,1.85
2023-02-28T11:40:02.015Z,1.60
2023-02-28T11:42:44.670Z,2.38
2023-02-28T11:45:31.989Z,1.58
2023-02-28T11:48:08.998Z,1.67
2023-02-28T11:50:54.086Z,1.80
2023-02-28T11:53:32.946Z,1.93
2023-02-28T11:56:08.529Z,2.58
2023-02-28T11:58:47.390Z,1.95
2023-02-28T12:01:33.220Z,1.92
2023-02-28T12:04:13.958Z,1.95
2023-02-28T12:06:52.104Z,2.08
2023-02-28T12:09:43.612Z,1.80
2023-02-28T12:12:35.019Z,1.92
2023-02-28T12:15:19.020Z,2.55
2023-02-28T12:18:07.237Z,2.20
2023-02-28T12:20:44.351Z,2.40
2023-02-28T12:23:33.001Z,2.30
2023-02-28T12:26:10.507Z,2.25
2023-02-28T12:28:43.973Z,2.28
2023-02-28T12:31:18.092Z,2.20
2023-02-28T12:33:53.434Z,2.13
2023-02-28T12:36:24.815Z,2.10
2023-02-28T12:38:58.563Z,2.20
2023-02-28T12:41:33.525Z,2.15
2023-02-28T12:44:05.920Z,2.10
2023-02-28T12:46:38.081Z,2.20
2023-02-28T12:49:11.753Z,2.30
2023-02-28T12:51:40.952Z,2.20
2023-02-28T12:54:18.462Z,2.30
2023-02-28T12:56:55.832Z,2.28
2023-02-28T12:59:29.203Z,2.42
2023-02-28T13:02:29.819Z,2.10
2023-02-28T13:05:22.085Z,2.90
2023-02-28T13:08:22.662Z,2.47
2023-02-28T13:10:55.575Z,2.75
2023-02-28T13:13:25.469Z,2.47
2023-02-28T13:16:03.735Z,2.95
2023-02-28T13:18:37.282Z,2.78
2023-02-28T13:21:08.956Z,2.60
2023-02-28T13:24:01.611Z,2.70
2023-02-28T13:27:10.224Z,2.70
2023-02-28T13:29:41.458Z,2.85
2023-02-28T13:32:40.051Z,2.70
2023-02-28T13:35:39.394Z,2.50
2023-02-28T13:38:39.500Z,2.58
2023-02-28T13:41:48.868Z,2.80
2023-02-28T13:44:19.804Z,2.55
2023-02-28T13:47:31.133Z,2.83
2023-02-28T13:50:17.979Z,2.58
2023-02-28T13:52:54.499Z,2.80
2023-02-28T13:55:31.188Z,2.80
2023-02-28T13:58:24.554Z,4.00
2023-02-28T14:01:09.898Z,3.10
2023-02-28T14:03:49.029Z,2.95
2023-02-28T14:06:27.394Z,3.65
2023-02-28T14:09:00.381Z,2.88
2023-02-28T14:11:33.443Z,2.97
2023-02-28T14:14:02.987Z,2.72
2023-02-28T14:16:41.495Z,2.83
2023-02-28T14:19:15.351Z,3.00
2023-02-28T14:21:53.792Z,3.00
2023-02-28T14:24:50.993Z,2.95
2023-02-28T14:27:45.541Z,2.70
2023-02-28T14:30:38.978Z,3.33
2023-02-28T14:33:29.032Z,3.50
2023-02-28T14:36:13.977Z,3.33
2023-02-28T14:38:46.935Z,4.20
2023-02-28T14:41:26.711Z,3.20
2023-02-28T14:44:00.978Z,2.60
2023-02-28T14:46:37.577Z,2.85
2023-02-28T14:49:08.161Z,2.78
2023-02-28T14:51:37.124Z,2.85
2023-02-28T14:54:06.004Z,2.40
2023-02-28T14:56:38.845Z,2.60
2023-02-28T14:59:28.574Z,3.10
2023-02-28T15:02:18.459Z,2.90
2023-02-28T15:04:56.420Z,2.60
2023-02-28T15:07:29.410Z,2.40
2023-02-28T15:10:20.930Z,2.50
2023-02-28T15:12:55.964Z,2.55
2023-02-28T15:15:36.070Z,2.85
2023-02-28T15:18:12.733Z,2.85
2023-02-28T15:20:43.392Z,2.97
2023-02-28T15:23:13.046Z,2.75
2023-02-28T15:25:42.908Z,2.70
2023-02-28T15:28:17.528Z,2.97
2023-02-28T15:30:57.090Z,2.53
2023-02-28T15:33:27.670Z,2.78
2023-02-28T15:36:08.073Z,2.92
2023-02-28T15:38:38.682Z,2.80
2023-02-28T15:41:09.151Z,2.50
2023-02-28T15:43:41.688Z,2.83
2023-02-28T15:46:14.251Z,2.88
2023-02-28T15:48:51.392Z,3.00
2023-02-28T15:51:22.104Z,2.78
2023-02-28T15:53:54.289Z,2.90
2023-02-28T15:56:27.205Z,2.87
2023-02-28T15:58:57.422Z,2.63
2023-02-28T16:01:31.120Z,2.60
2023-02-28T16:04:01.907Z,2.95
2023-02-28T16:06:39.454Z,2.70
2023-02-28T16:09:10.881Z,2.88
2023-02-28T16:11:43.335Z,2.58
2023-02-28T16:14:18.470Z,3.00
2023-02-28T16:16:50.411Z,2.60
2023-02-28T16:19:18.894Z,2.83
2023-02-28T16:21:47.451Z,2.67
2023-02-28T16:24:16.812Z,3.00
2023-02-28T16:26:49.452Z,2.75
2023-02-28T16:29:25.332Z,2.70
2023-02-28T16:31:55.495Z,2.90
2023-02-28T16:34:24.217Z,2.70
2023-02-28T16:36:53.236Z,2.70
2023-02-28T16:39:22.235Z,2.65
2023-02-28T16:41:52.323Z,2.70
2023-02-28T16:44:29.671Z,2.70
2023-02-28T16:47:01.593Z,2.88
2023-02-28T16:49:41.789Z,3.30
2023-02-28T16:52:18.754Z,2.97
2023-02-28T16:54:47.874Z,3.20
2023-02-28T16:57:22.883Z,3.20
2023-02-28T16:59:52.079Z,3.00
2023-02-28T17:02:22.062Z,3.20
2023-02-28T17:04:50.404Z,2.90
2023-02-28T17:07:19.494Z,3.33
2023-02-28T17:09:47.848Z,3.30
2023-02-28T17:12:16.456Z,3.33
2023-02-28T17:14:44.679Z,3.27
2023-02-28T17:17:19.808Z,3.85
2023-02-28T17:19:49.642Z,3.38
2023-02-28T17:22:17.856Z,3.40
2023-02-28T17:24:46.437Z,3.28
2023-02-28T17:27:14.939Z,3.60
2023-02-28T17:29:43.192Z,3.70
2023-02-28T17:32:19.004Z,3.80
2023-02-28T17:34:48.884Z,3.63
2023-02-28T17:37:17.315Z,4.00
2023-02-28T17:39:45.546Z,3.70
2023-02-28T17:42:14.150Z,3.33
2023-02-28T17:44:42.293Z,3.20
2023-02-28T17:47:13.912Z,2.93
2023-02-28T17:49:42.580Z,3.20
2023-02-28T17:52:12.228Z,3.83
2023-02-28T17:54:40.598Z,3.40
2023-02-28T17:57:11.565Z,3.43
2023-02-28T17:59:39.835Z,3.13
2023-02-28T18:02:08.515Z,3.30
2023-02-28T18:04:36.949Z,3.83
2023-02-28T18:07:05.514Z,3.67
2023-02-28T18:09:35.194Z,3.90
2023-02-28T18:12:03.403Z,7.77
2023-02-28T18:14:31.814Z,7.27
2023-02-28T18:17:00.228Z,5.53
2023-02-28T18:19:28.546Z,7.00
2023-02-28T18:21:57.235Z,5.23
2023-02-28T18:24:26.191Z,5.17
2023-02-28T18:26:55.794Z,15.17
2023-02-28T18:29:26.527Z,23.17
2023-02-28T18:31:56.242Z,17.07
2023-02-28T18:34:26.379Z,6.97
2023-02-28T18:36:54.986Z,7.03
2023-02-28T18:39:23.528Z,6.63
2023-02-28T18:41:51.944Z,6.23
2023-02-28T18:44:22.430Z,5.80
2023-02-28T18:46:51.408Z,5.50
2023-02-28T18:49:19.886Z,6.47
2023-02-28T18:51:48.766Z,6.70
2023-02-28T18:54:18.616Z,6.93
2023-02-28T18:56:47.330Z,7.97
2023-02-28T18:59:15.825Z,8.57
2023-02-28T19:01:46.554Z,8.57
2023-02-28T19:04:15.946Z,11.27
2023-02-28T19:06:44.236Z,11.27
2023-02-28T19:09:12.499Z,11.60
2023-02-28T19:11:41.073Z,10.73
2023-02-28T19:14:12.461Z,10.17
2023-02-28T19:16:41.218Z,8.77
2023-02-28T19:19:10.906Z,8.90
2023-02-28T19:21:39.171Z,8.20
2023-02-28T19:24:07.682Z,6.60
2023-02-28T19:26:35.928Z,6.97
2023-02-28T19:29:05.682Z,7.17
2023-02-28T19:31:34.489Z,6.53
2023-02-28T19:34:02.943Z,7.70
2023-02-28T19:36:33.574Z,9.10
2023-02-28T19:39:01.897Z,9.40
2023-02-28T19:41:30.332Z,11.10
2023-02-28T19:43:59.310Z,10.97
2023-02-28T19:46:28.836Z,12.60
2023-02-28T19:49:06.334Z,15.90
2023-02-28T19:51:38.379Z,11.03
2023-02-28T19:54:06.593Z,11.17
2023-02-28T19:56:34.835Z,10.40
2023-02-28T19:59:04.900Z,9.27
2023-02-28T20:01:33.406Z,8.20
2023-02-28T20:04:04.847Z,8.97
2023-02-28T20:06:33.884Z,8.40
2023-02-28T20:09:03.567Z,8.50
2023-02-28T20:11:31.830Z,7.90
2023-02-28T20:14:00.639Z,9.57
2023-02-28T20:16:32.522Z,12.70
2023-02-28T20:19:01.023Z,11.00
2023-02-28T20:21:29.429Z,9.67
2023-02-28T20:23:57.717Z,10.00
2023-02-28T20:26:27.655Z,8.90
2023-02-28T20:28:56.209Z,9.23
2023-02-28T20:31:26.451Z,8.93
2023-02-28T20:33:54.744Z,9.50
2023-02-28T20:36:23.792Z,9.67
2023-02-28T20:38:54.002Z,9.87
2023-02-28T20:41:23.548Z,10.53
2023-02-28T20:43:58.129Z,10.53
2023-02-28T20:46:26.841Z,11.20
2023-02-28T20:48:55.779Z,10.67
2023-02-28T20:51:24.981Z,11.47
2023-02-28T20:53:53.422Z,11.03
2023-02-28T20:56:23.745Z,9.37
2023-02-28T20:58:57.698Z,10.37
2023-02-28T21:01:27.739Z,9.47
2023-02-28T21:03:57.544Z,10.40
2023-02-28T21:06:28.520Z,9.90
2023-02-28T21:08:57.595Z,10.17
2023-02-28T21:11:27.916Z,9.03
2023-02-28T21:13:59.700Z,10.27
2023-02-28T21:16:29.841Z,10.87
2023-02-28T21:19:03.655Z,10.53
2023-02-28T21:21:33.253Z,11.03
2023-02-28T21:24:01.632Z,10.93
2023-02-28T21:26:30.361Z,14.77
2023-02-28T21:29:01.961Z,13.77
2023-02-28T21:31:32.260Z,11.73
2023-02-28T21:34:02.027Z,12.93
2023-02-28T21:36:33.396Z,11.73
2023-02-28T21:39:05.710Z,12.60
2023-02-28T21:41:33.977Z,11.97
2023-02-28T21:44:03.807Z,11.87
2023-02-28T21:46:33.060Z,13.80
2023-02-28T21:49:01.571Z,13.50
2023-02-28T21:51:32.124Z,13.37
2023-02-28T21:54:02.141Z,14.03
2023-02-28T21:56:32.235Z,13.73
2023-02-28T21:59:01.578Z,12.33
2023-02-28T22:01:35.712Z,13.17
2023-02-28T22:04:05.714Z,16.17
2023-02-28T22:06:35.482Z,20.00
2023-02-28T22:09:07.300Z,20.67
2023-02-28T22:11:37.103Z,19.17
2023-02-28T22:14:10.780Z,18.17
2023-02-28T22:16:56.630Z,17.97
2023-02-28T22:19:27.673Z,15.93
2023-02-28T22:21:56.847Z,18.27
2023-02-28T22:24:25.106Z,17.07
2023-02-28T22:26:53.841Z,16.60
2023-02-28T22:29:22.166Z,17.77
2023-02-28T22:31:51.890Z,15.63
2023-02-28T22:34:20.240Z,16.30
2023-02-28T22:36:48.458Z,16.60
2023-02-28T22:39:16.759Z,16.47
2023-02-28T22:41:44.931Z,16.73
2023-02-28T22:44:13.432Z,15.00
2023-02-28T22:46:41.734Z,15.40
2023-02-28T22:49:11.591Z,14.03
2023-02-28T22:51:39.797Z,16.07
2023-02-28T22:54:07.996Z,16.00
2023-02-28T22:56:36.295Z,16.10
2023-02-28T22:59:04.568Z,16.67
2023-02-28T23:01:34.904Z,18.43
2023-02-28T23:04:04.158Z,20.23
2023-02-28T23:06:37.735Z,20.37
2023-02-28T23:09:08.739Z,18.87
2023-02-28T23:11:40.058Z,19.10
2023-02-28T23:14:09.243Z,19.33
2023-02-28T23:16:40.928Z,18.83
2023-02-28T23:19:12.775Z,16.63
2023-02-28T23:21:43.586Z,16.33
2023-02-28T23:24:13.113Z,15.80
2023-02-28T23:26:44.050Z,15.37
2023-02-28T23:29:14.254Z,16.63
2023-02-28T23:31:42.790Z,16.87
2023-02-28T23:34:11.081Z,15.07
2023-02-28T23:36:43.478Z,15.47
2023-02-28T23:39:13.785Z,15.30
2023-02-28T23:41:42.257Z,15.20
2023-02-28T23:44:16.917Z,14.70
2023-02-28T23:46:45.955Z,15.00
2023-02-28T23:49:14.909Z,15.03
2023-02-28T23:51:43.591Z,14.67
2023-02-28T23:54:13.434Z,14.63
2023-02-28T23:56:41.738Z,14.63
2023-02-28T23:59:10.367Z,15.30
